createdAt,value
2018-09-12T00:01:08.389Z,70.60
2018-09-12T00:03:37.988Z,70.70
2018-09-12T00:06:07.707Z,70.60
2018-09-12T00:08:37.974Z,70.60
2018-09-12T00:11:07.587Z,70.60
2018-09-12T00:13:37.369Z,70.70
2018-09-12T00:16:07.178Z,70.70
2018-09-12T00:18:36.710Z,70.80
2018-09-12T00:21:07.184Z,70.80
2018-09-12T00:23:37.361Z,70.90
2018-09-12T00:26:07.003Z,70.80
2018-09-12T00:28:36.920Z,70.90
2018-09-12T00:31:06.786Z,70.90
2018-09-12T00:33:37.080Z,71.00
2018-09-12T00:36:08.511Z,70.90
2018-09-12T00:38:38.579Z,70.90
2018-09-12T00:41:08.108Z,70.90
2018-09-12T00:43:38.123Z,70.90
2018-09-12T00:46:08.534Z,71.00
2018-09-12T00:48:38.000Z,71.10
2018-09-12T00:51:07.808Z,71.10
2018-09-12T00:53:37.576Z,71.20
2018-09-12T00:56:08.053Z,71.20
2018-09-12T00:58:38.412Z,71.20
2018-09-12T01:01:08.378Z,71.20
2018-09-12T01:03:38.124Z,71.30
2018-09-12T01:06:08.434Z,71.40
2018-09-12T01:08:38.012Z,71.30
2018-09-12T01:11:07.604Z,71.30
2018-09-12T01:13:37.375Z,71.30
2018-09-12T01:16:07.055Z,71.20
2018-09-12T01:18:37.135Z,71.30
2018-09-12T01:21:07.177Z,71.40
2018-09-12T01:23:36.660Z,71.20
2018-09-12T01:26:06.373Z,71.20
2018-09-12T01:28:35.813Z,71.20
2018-09-12T01:31:05.761Z,71.20
2018-09-12T01:33:35.633Z,71.40
2018-09-12T01:36:06.177Z,71.40
2018-09-12T01:38:36.895Z,71.70
2018-09-12T01:41:06.662Z,71.50
2018-09-12T01:43:36.191Z,72.00
2018-09-12T01:46:06.665Z,71.50
2018-09-12T01:48:36.237Z,71.50
2018-09-12T01:51:05.699Z,71.40
2018-09-12T01:53:35.889Z,71.50
2018-09-12T01:56:05.493Z,71.40
2018-09-12T01:58:35.200Z,71.40
2018-09-12T02:01:04.741Z,71.30
2018-09-12T02:03:34.332Z,71.80
2018-09-12T02:06:05.005Z,71.60
2018-09-12T02:08:34.669Z,71.50
2018-09-12T02:11:04.936Z,71.50
2018-09-12T02:13:35.221Z,71.60
2018-09-12T02:16:05.397Z,71.60
2018-09-12T02:18:34.866Z,71.80
2018-09-12T02:21:04.371Z,71.70
2018-09-12T02:23:34.043Z,71.80
2018-09-12T02:26:04.259Z,71.80
2018-09-12T02:28:33.900Z,71.90
2018-09-12T02:31:03.366Z,71.90
2018-09-12T02:33:33.778Z,71.90
2018-09-12T02:36:09.633Z,71.80
2018-09-12T02:38:39.156Z,71.80
2018-09-12T02:41:08.744Z,71.80
2018-09-12T02:43:38.242Z,71.90
2018-09-12T02:46:08.225Z,71.90
2018-09-12T02:48:37.935Z,71.80
2018-09-12T02:51:07.468Z,71.80
2018-09-12T02:53:36.975Z,72.00
2018-09-12T02:56:06.514Z,71.90
2018-09-12T02:58:36.002Z,71.90
2018-09-12T03:01:05.409Z,71.80
2018-09-12T03:03:35.151Z,71.80
2018-09-12T03:06:04.513Z,71.70
2018-09-12T03:08:34.733Z,72.00
2018-09-12T03:11:04.302Z,72.00
2018-09-12T03:13:33.939Z,72.10
2018-09-12T03:16:03.434Z,72.10
2018-09-12T03:18:33.102Z,72.30
2018-09-12T03:21:02.901Z,72.30
2018-09-12T03:23:33.094Z,72.50
2018-09-12T03:26:03.770Z,72.60
2018-09-12T03:28:33.405Z,72.80
2018-09-12T03:31:03.131Z,72.80
2018-09-12T03:33:33.144Z,72.80
2018-09-12T03:36:02.764Z,72.80
2018-09-12T03:38:33.285Z,72.80
2018-09-12T03:41:02.708Z,72.80
2018-09-12T03:43:32.463Z,72.90
2018-09-12T03:46:02.708Z,72.90
2018-09-12T03:48:32.934Z,73.00
2018-09-12T03:51:02.470Z,72.80
2018-09-12T03:53:32.019Z,72.80
2018-09-12T03:56:01.711Z,72.80
2018-09-12T03:58:31.199Z,72.80
2018-09-12T04:01:01.317Z,73.50
2018-09-12T04:03:30.935Z,72.80
2018-09-12T04:06:01.005Z,72.80
2018-09-12T04:08:30.989Z,72.90
2018-09-12T04:11:01.168Z,73.10
2018-09-12T04:13:32.294Z,73.10
2018-09-12T04:16:02.684Z,73.20
2018-09-12T04:18:32.406Z,73.20
2018-09-12T04:21:01.963Z,73.30
2018-09-12T04:23:32.736Z,73.40
2018-09-12T04:26:02.201Z,73.30
2018-09-12T04:28:31.718Z,73.30
2018-09-12T04:31:01.248Z,73.30
2018-09-12T04:33:30.827Z,73.40
2018-09-12T04:36:00.567Z,73.30
2018-09-12T04:38:30.173Z,73.30
2018-09-12T04:41:00.246Z,73.30
2018-09-12T04:43:30.856Z,73.30
2018-09-12T04:46:01.622Z,73.30
2018-09-12T04:48:31.264Z,73.30
2018-09-12T04:51:00.740Z,73.30
2018-09-12T04:53:30.487Z,73.20
2018-09-12T04:56:00.986Z,73.30
2018-09-12T04:58:39.530Z,73.30
2018-09-12T05:01:09.893Z,73.30
2018-09-12T05:03:40.051Z,73.40
2018-09-12T05:06:10.085Z,73.40
2018-09-12T05:08:39.677Z,73.40
2018-09-12T05:11:14.090Z,74.20
2018-09-12T05:13:43.966Z,73.40
2018-09-12T05:16:13.577Z,73.30
2018-09-12T05:18:44.621Z,73.30
2018-09-12T05:21:14.321Z,73.40
2018-09-12T05:23:43.909Z,73.50
2018-09-12T05:26:13.991Z,73.70
2018-09-12T05:28:43.809Z,73.70
2018-09-12T05:31:13.383Z,73.90
2018-09-12T05:33:43.170Z,73.90
2018-09-12T05:36:12.835Z,74.00
2018-09-12T05:38:42.680Z,74.10
2018-09-12T05:41:13.018Z,74.20
2018-09-12T05:43:44.998Z,74.30
2018-09-12T05:46:15.377Z,74.30
2018-09-12T05:48:46.142Z,74.40
2018-09-12T05:51:15.696Z,74.50
2018-09-12T05:53:45.240Z,74.50
2018-09-12T05:56:16.271Z,74.80
2018-09-12T05:58:47.646Z,74.90
2018-09-12T06:01:17.243Z,75.00
2018-09-12T06:03:48.291Z,75.00
2018-09-12T06:06:18.152Z,75.20
2018-09-12T06:08:51.867Z,75.20
2018-09-12T06:11:21.556Z,75.30
2018-09-12T06:13:52.346Z,75.30
2018-09-12T06:16:22.329Z,75.40
2018-09-12T06:18:51.983Z,75.50
2018-09-12T06:21:22.511Z,75.80
2018-09-12T06:23:52.043Z,76.00
2018-09-12T06:26:22.339Z,76.10
2018-09-12T06:28:51.925Z,76.20
2018-09-12T06:31:23.300Z,76.40
2018-09-12T06:33:53.962Z,76.40
2018-09-12T06:36:25.219Z,76.30
2018-09-12T06:38:54.919Z,76.00
2018-09-12T06:41:24.748Z,75.90
2018-09-12T06:43:54.541Z,75.70
2018-09-12T06:46:24.792Z,76.40
2018-09-12T06:48:54.381Z,75.50
2018-09-12T06:51:23.879Z,75.30
2018-09-12T06:53:53.804Z,75.90
2018-09-12T06:56:24.455Z,75.00
2018-09-12T06:58:53.971Z,74.90
2018-09-12T07:01:23.379Z,74.70
2018-09-12T07:03:54.270Z,74.60
2018-09-12T07:06:23.907Z,74.40
2018-09-12T07:08:53.582Z,74.20
2018-09-12T07:11:23.309Z,74.00
2018-09-12T07:13:53.104Z,73.70
2018-09-12T07:16:23.384Z,73.50
2018-09-12T07:18:52.869Z,73.20
2018-09-12T07:21:22.354Z,73.00
2018-09-12T07:23:51.917Z,72.80
2018-09-12T07:26:22.003Z,72.60
2018-09-12T07:28:51.478Z,72.40
2018-09-12T07:31:21.282Z,72.10
2018-09-12T07:33:51.419Z,71.90
2018-09-12T07:36:21.820Z,71.60
2018-09-12T07:38:51.446Z,71.40
2018-09-12T07:41:22.463Z,71.20
2018-09-12T07:43:51.984Z,70.80
2018-09-12T07:46:21.737Z,70.50
2018-09-12T07:48:51.862Z,70.20
2018-09-12T07:51:23.093Z,70.00
2018-09-12T07:53:52.599Z,69.60
2018-09-12T07:56:22.320Z,69.50
2018-09-12T07:58:53.571Z,69.20
2018-09-12T08:01:23.400Z,68.90
2018-09-12T08:03:53.039Z,68.40
2018-09-12T08:06:23.293Z,68.20
2018-09-12T08:08:52.937Z,68.00
2018-09-12T08:11:22.384Z,67.70
2018-09-12T08:13:51.873Z,67.40
2018-09-12T08:16:21.648Z,67.10
2018-09-12T08:18:51.405Z,66.70
2018-09-12T08:21:21.575Z,66.30
2018-09-12T08:23:51.336Z,66.00
2018-09-12T08:26:22.229Z,65.50
2018-09-12T08:28:54.399Z,65.30
2018-09-12T08:31:24.287Z,65.10
2018-09-12T08:33:56.392Z,64.80
2018-09-12T08:36:26.415Z,64.40
2018-09-12T08:38:56.040Z,64.10
2018-09-12T08:41:25.764Z,63.70
2018-09-12T08:43:55.904Z,63.00
2018-09-12T08:46:26.134Z,62.80
2018-09-12T08:48:55.695Z,62.20
2018-09-12T08:51:25.444Z,62.00
2018-09-12T08:53:55.942Z,61.60
2018-09-12T08:56:25.500Z,61.20
2018-09-12T08:58:55.349Z,60.80
2018-09-12T09:01:25.734Z,60.60
2018-09-12T09:03:55.390Z,60.40
2018-09-12T09:06:25.248Z,60.10
2018-09-12T09:08:56.468Z,59.90
2018-09-12T09:11:26.067Z,59.60
2018-09-12T09:13:56.119Z,59.20
2018-09-12T09:16:25.863Z,58.80
2018-09-12T09:18:56.639Z,58.50
2018-09-12T09:21:26.720Z,58.20
2018-09-12T09:23:56.501Z,57.70
2018-09-12T09:26:26.196Z,57.40
2018-09-12T09:28:56.157Z,57.10
2018-09-12T09:31:25.660Z,56.70
2018-09-12T09:33:55.639Z,56.30
2018-09-12T09:36:25.102Z,55.90
2018-09-12T09:38:54.720Z,55.50
2018-09-12T09:41:27.112Z,55.20
2018-09-12T09:43:57.818Z,54.90
2018-09-12T09:46:27.343Z,54.70
2018-09-12T09:48:57.661Z,54.40
2018-09-12T09:51:27.973Z,54.00
2018-09-12T09:53:57.602Z,53.50
2018-09-12T09:56:28.126Z,53.20
2018-09-12T09:58:57.974Z,52.40
2018-09-12T10:01:32.800Z,51.60
2018-09-12T10:04:08.002Z,50.60
2018-09-12T10:06:42.898Z,49.90
2018-09-12T10:09:17.606Z,49.30
2018-09-12T10:11:47.336Z,48.60
2018-09-12T10:14:16.983Z,48.10
2018-09-12T10:16:47.312Z,47.30
2018-09-12T10:19:18.218Z,46.50
2018-09-12T10:21:48.033Z,46.50
2018-09-12T10:24:17.958Z,45.30
2018-09-12T10:26:48.076Z,45.20
2018-09-12T10:29:17.760Z,44.30
2018-09-12T10:31:49.139Z,44.30
2018-09-12T10:34:19.087Z,43.20
2018-09-12T10:36:49.046Z,42.20
2018-09-12T10:39:19.202Z,42.30
2018-09-12T10:41:49.365Z,41.80
2018-09-12T10:44:19.093Z,41.50
2018-09-12T10:46:49.738Z,41.10
2018-09-12T10:49:19.769Z,41.00
2018-09-12T10:51:50.596Z,41.20
2018-09-12T10:54:20.627Z,41.60
2018-09-12T10:56:50.354Z,41.30
2018-09-12T10:59:21.911Z,40.80
2018-09-12T11:01:52.418Z,40.10
2018-09-12T11:04:23.756Z,39.60
2018-09-12T11:06:53.531Z,39.20
2018-09-12T11:09:23.117Z,39.20
2018-09-12T11:11:52.706Z,38.90
2018-09-12T11:14:22.156Z,38.40
2018-09-12T11:16:53.114Z,38.50
2018-09-12T11:19:22.861Z,38.10
2018-09-12T11:21:52.443Z,38.00
2018-09-12T11:24:23.894Z,38.10
2018-09-12T11:27:01.339Z,38.10
2018-09-12T11:29:31.046Z,37.70
2018-09-12T11:32:00.733Z,36.90
2018-09-12T11:34:30.429Z,36.20
2018-09-12T11:37:01.520Z,35.60
2018-09-12T11:39:31.132Z,35.10
2018-09-12T11:42:00.807Z,34.90
2018-09-12T11:44:30.597Z,34.40
2018-09-12T11:47:00.836Z,33.80
2018-09-12T11:49:31.350Z,33.50
2018-09-12T11:52:02.226Z,33.40
2018-09-12T11:54:32.730Z,33.10
2018-09-12T11:57:04.861Z,33.20
2018-09-12T11:59:34.572Z,32.90
2018-09-12T12:02:04.283Z,32.50
2018-09-12T12:04:33.693Z,32.10
2018-09-12T12:07:03.131Z,31.80
2018-09-12T12:09:32.669Z,31.50
2018-09-12T12:12:03.252Z,31.30
2018-09-12T12:14:32.800Z,31.20
2018-09-12T12:17:03.305Z,31.10
2018-09-12T12:19:32.817Z,30.90
2018-09-12T12:22:02.583Z,30.70
2018-09-12T12:24:32.293Z,30.20
2018-09-12T12:27:02.039Z,29.90
2018-09-12T12:29:31.530Z,29.80
2018-09-12T12:32:01.894Z,29.80
2018-09-12T12:34:31.433Z,29.70
2018-09-12T12:37:02.243Z,29.60
2018-09-12T12:39:31.781Z,29.40
2018-09-12T12:42:02.121Z,29.20
2018-09-12T12:44:31.956Z,29.10
2018-09-12T12:47:01.636Z,28.90
2018-09-12T12:49:31.213Z,28.80
2018-09-12T12:52:03.829Z,28.70
2018-09-12T12:54:33.321Z,28.50
2018-09-12T12:57:03.133Z,28.40
2018-09-12T12:59:32.984Z,28.30
2018-09-12T13:02:03.175Z,28.30
2018-09-12T13:04:33.423Z,28.10
2018-09-12T13:07:03.673Z,28.00
2018-09-12T13:09:35.031Z,27.90
2018-09-12T13:12:05.566Z,27.70
2018-09-12T13:14:36.384Z,27.50
2018-09-12T13:17:06.030Z,27.30
2018-09-12T13:19:36.221Z,27.20
2018-09-12T13:22:06.725Z,27.20
2018-09-12T13:24:36.980Z,27.00
2018-09-12T13:27:07.235Z,26.80
2018-09-12T13:29:37.824Z,26.60
2018-09-12T13:32:07.169Z,26.50
2018-09-12T13:34:36.801Z,26.40
2018-09-12T13:37:06.388Z,26.20
2018-09-12T13:39:36.123Z,26.20
2018-09-12T13:42:05.812Z,26.10
2018-09-12T13:44:36.652Z,25.80
2018-09-12T13:47:06.182Z,25.70
2018-09-12T13:49:36.809Z,25.70
2018-09-12T13:52:06.388Z,25.50
2018-09-12T13:54:36.408Z,25.50
2018-09-12T13:57:06.496Z,25.60
2018-09-12T13:59:35.975Z,25.50
2018-09-12T14:02:05.675Z,25.20
2018-09-12T14:04:35.231Z,25.00
2018-09-12T14:07:04.889Z,24.70
2018-09-12T14:09:35.657Z,24.60
2018-09-12T14:12:05.772Z,24.50
2018-09-12T14:14:44.389Z,24.20
2018-09-12T14:17:13.896Z,24.00
2018-09-12T14:19:43.284Z,24.00
2018-09-12T14:22:12.853Z,24.10
2018-09-12T14:24:42.692Z,24.10
2018-09-12T14:27:12.565Z,24.10
2018-09-12T14:29:42.535Z,23.90
2018-09-12T14:32:12.294Z,23.90
2018-09-12T14:34:42.663Z,23.90
2018-09-12T14:37:12.615Z,23.80
2018-09-12T14:39:42.175Z,23.60
2018-09-12T14:42:11.743Z,23.30
2018-09-12T14:44:41.257Z,22.90
2018-09-12T14:47:10.869Z,22.70
2018-09-12T14:49:41.939Z,22.60
2018-09-12T14:52:11.683Z,22.60
2018-09-12T14:54:41.357Z,22.60
2018-09-12T14:57:11.442Z,22.50
2018-09-12T14:59:41.773Z,23.00
2018-09-12T15:02:11.323Z,22.20
2018-09-12T15:04:40.946Z,22.10
2018-09-12T15:07:10.799Z,22.10
2018-09-12T15:09:40.421Z,22.10
2018-09-12T15:12:10.673Z,22.10
2018-09-12T15:14:40.398Z,21.90
2018-09-12T15:17:11.279Z,21.70
2018-09-12T15:19:41.533Z,21.60
2018-09-12T15:22:11.213Z,21.40
2018-09-12T15:24:40.660Z,21.20
2018-09-12T15:27:10.267Z,20.90
2018-09-12T15:29:40.037Z,21.00
2018-09-12T15:32:10.436Z,20.90
2018-09-12T15:34:40.018Z,20.80
2018-09-12T15:37:10.553Z,20.70
2018-09-12T15:39:40.021Z,20.60
2018-09-12T15:42:09.683Z,20.60
2018-09-12T15:44:39.498Z,20.80
2018-09-12T15:47:09.358Z,21.20
2018-09-12T15:49:38.931Z,21.50
2018-09-12T15:52:09.486Z,21.70
2018-09-12T15:54:39.098Z,22.00
2018-09-12T15:57:09.362Z,22.40
2018-09-12T15:59:38.901Z,22.70
2018-09-12T16:02:08.654Z,23.10
2018-09-12T16:04:38.268Z,23.60
2018-09-12T16:07:07.821Z,23.50
2018-09-12T16:09:37.380Z,24.30
2018-09-12T16:12:08.746Z,24.80
2018-09-12T16:14:38.452Z,25.00
2018-09-12T16:17:09.008Z,26.30
2018-09-12T16:19:38.765Z,26.40
2018-09-12T16:22:08.475Z,26.30
2018-09-12T16:24:37.959Z,26.50
2018-09-12T16:27:07.653Z,26.50
2018-09-12T16:29:37.114Z,26.60
2018-09-12T16:32:07.131Z,26.70
2018-09-12T16:34:36.541Z,26.80
2018-09-12T16:37:06.533Z,26.90
2018-09-12T16:39:36.705Z,27.60
2018-09-12T16:42:07.243Z,29.20
2018-09-12T16:44:37.776Z,30.60
2018-09-12T16:47:08.192Z,31.80
2018-09-12T16:49:37.664Z,32.60
2018-09-12T16:52:07.825Z,33.40
2018-09-12T16:54:37.418Z,34.40
2018-09-12T16:57:09.314Z,35.40
2018-09-12T16:59:39.596Z,36.40
2018-09-12T17:02:09.386Z,37.20
2018-09-12T17:04:39.319Z,37.90
2018-09-12T17:07:08.870Z,38.60
2018-09-12T17:09:38.629Z,39.40
2018-09-12T17:12:08.134Z,40.10
2018-09-12T17:14:37.808Z,40.80
2018-09-12T17:17:07.471Z,41.40
2018-09-12T17:19:37.089Z,41.80
2018-09-12T17:22:07.414Z,42.20
2018-09-12T17:24:36.983Z,42.70
2018-09-12T17:27:06.589Z,43.10
2018-09-12T17:29:38.087Z,43.30
2018-09-12T17:32:07.853Z,43.50
2018-09-12T17:34:37.383Z,44.00
2018-09-12T17:37:08.070Z,44.30
2018-09-12T17:39:38.483Z,44.70
2018-09-12T17:42:08.899Z,45.00
2018-09-12T17:44:39.229Z,45.60
2018-09-12T17:47:08.880Z,46.00
2018-09-12T17:49:39.391Z,46.40
2018-09-12T17:52:10.792Z,46.80
2018-09-12T17:54:40.398Z,47.30
2018-09-12T17:57:11.162Z,47.60
2018-09-12T17:59:42.592Z,47.90
2018-09-12T18:02:15.464Z,48.30
2018-09-12T18:04:45.119Z,48.80
2018-09-12T18:07:15.829Z,49.30
2018-09-12T18:09:48.162Z,49.70
2018-09-12T18:12:17.957Z,49.90
2018-09-12T18:14:47.912Z,50.30
2018-09-12T18:17:29.923Z,50.40
2018-09-12T18:20:02.368Z,50.70
2018-09-12T18:22:32.672Z,50.90
2018-09-12T18:25:02.254Z,51.30
2018-09-12T18:27:32.615Z,51.60
2018-09-12T18:30:04.285Z,51.90
2018-09-12T18:32:33.712Z,52.10
2018-09-12T18:35:04.909Z,52.40
2018-09-12T18:37:36.085Z,52.60
2018-09-12T18:40:06.197Z,53.00
2018-09-12T18:42:36.453Z,53.20
2018-09-12T18:45:06.663Z,53.40
2018-09-12T18:47:37.943Z,53.70
2018-09-12T18:50:07.580Z,54.00
2018-09-12T18:52:38.239Z,54.10
2018-09-12T18:55:13.951Z,54.50
2018-09-12T18:57:43.674Z,54.70
2018-09-12T19:00:15.623Z,54.90
2018-09-12T19:02:54.491Z,55.20
2018-09-12T19:05:27.583Z,55.20
2018-09-12T19:07:59.929Z,55.50
2018-09-12T19:10:30.149Z,55.70
2018-09-12T19:13:05.381Z,56.10
2018-09-12T19:15:37.019Z,56.40
2018-09-12T19:18:09.399Z,56.60
2018-09-12T19:20:40.120Z,56.80
2018-09-12T19:23:11.314Z,57.00
2018-09-12T19:25:41.824Z,57.20
2018-09-12T19:28:12.295Z,57.50
2018-09-12T19:30:43.083Z,58.20
2018-09-12T19:33:15.242Z,57.80
2018-09-12T19:35:45.629Z,57.90
2018-09-12T19:38:18.011Z,58.10
2018-09-12T19:40:49.341Z,58.20
2018-09-12T19:43:22.247Z,58.30
2018-09-12T19:45:54.142Z,58.50
2018-09-12T19:48:24.983Z,58.70
2018-09-12T19:50:55.208Z,58.90
2018-09-12T19:53:26.018Z,59.00
2018-09-12T19:55:57.446Z,59.20
2018-09-12T19:58:28.889Z,59.40
2018-09-12T20:00:58.550Z,59.40
2018-09-12T20:03:29.467Z,59.60
2018-09-12T20:06:01.492Z,59.70
2018-09-12T20:08:35.968Z,59.80
2018-09-12T20:11:06.060Z,60.00
2018-09-12T20:13:38.724Z,60.20
2018-09-12T20:16:11.693Z,60.50
2018-09-12T20:18:42.733Z,60.60
2018-09-12T20:21:14.102Z,60.80
2018-09-12T20:23:44.369Z,60.70
2018-09-12T20:26:14.641Z,60.90
2018-09-12T20:28:48.873Z,61.10
2018-09-12T20:31:18.895Z,61.00
2018-09-12T20:33:48.495Z,61.20
2018-09-12T20:36:18.249Z,61.40
2018-09-12T20:38:48.887Z,61.50
2018-09-12T20:41:19.393Z,61.80
2018-09-12T20:43:49.091Z,61.80
2018-09-12T20:46:20.992Z,61.90
2018-09-12T20:48:50.827Z,62.10
2018-09-12T20:51:21.568Z,62.10
2018-09-12T20:53:52.873Z,62.30
2018-09-12T20:56:23.409Z,62.50
2018-09-12T20:58:53.019Z,62.70
2018-09-12T21:01:24.398Z,62.80
2018-09-12T21:03:54.208Z,63.20
2018-09-12T21:06:23.958Z,63.30
2018-09-12T21:08:53.814Z,63.60
2018-09-12T21:11:24.375Z,63.70
2018-09-12T21:13:55.708Z,63.90
2018-09-12T21:16:25.525Z,63.90
2018-09-12T21:18:55.313Z,63.90
2018-09-12T21:21:24.916Z,63.90
2018-09-12T21:23:54.894Z,63.80
2018-09-12T21:26:24.956Z,63.80
2018-09-12T21:29:02.490Z,63.70
2018-09-12T21:31:32.817Z,63.80
2018-09-12T21:34:03.910Z,63.50
2018-09-12T21:36:34.369Z,63.60
2018-09-12T21:39:05.041Z,63.70
2018-09-12T21:41:34.710Z,63.70
2018-09-12T21:44:09.934Z,63.90
2018-09-12T21:46:39.484Z,64.00
2018-09-12T21:49:09.898Z,64.10
2018-09-12T21:51:40.273Z,64.10
2018-09-12T21:54:09.778Z,64.20
2018-09-12T21:56:39.271Z,64.30
2018-09-12T21:59:08.675Z,64.20
2018-09-12T22:01:38.942Z,64.40
2018-09-12T22:04:08.481Z,64.50
2018-09-12T22:06:39.029Z,64.60
2018-09-12T22:09:12.381Z,64.80
2018-09-12T22:11:43.097Z,64.90
2018-09-12T22:14:12.756Z,65.00
2018-09-12T22:16:42.393Z,65.10
2018-09-12T22:19:12.584Z,65.20
2018-09-12T22:21:42.191Z,65.30
2018-09-12T22:24:11.682Z,65.30
2018-09-12T22:26:41.738Z,65.40
2018-09-12T22:29:11.376Z,65.50
2018-09-12T22:31:41.070Z,65.60
2018-09-12T22:34:11.741Z,65.60
2018-09-12T22:36:41.202Z,65.60
2018-09-12T22:39:12.058Z,65.70
2018-09-12T22:41:42.940Z,65.60
2018-09-12T22:44:12.721Z,65.80
2018-09-12T22:46:42.408Z,65.90
2018-09-12T22:49:12.563Z,65.90
2018-09-12T22:51:42.995Z,65.90
2018-09-12T22:54:13.076Z,65.90
2018-09-12T22:56:42.702Z,66.10
2018-09-12T22:59:13.424Z,66.10
2018-09-12T23:01:43.324Z,66.20
2018-09-12T23:04:13.576Z,66.20
2018-09-12T23:06:43.074Z,66.10
2018-09-12T23:09:13.279Z,66.20
2018-09-12T23:11:44.157Z,66.30
2018-09-12T23:14:13.619Z,66.30
2018-09-12T23:16:44.147Z,66.40
2018-09-12T23:19:13.841Z,66.40
2018-09-12T23:21:43.347Z,66.30
2018-09-12T23:24:13.001Z,66.30
2018-09-12T23:26:42.869Z,66.40
2018-09-12T23:29:12.700Z,66.40
2018-09-12T23:31:42.515Z,66.50
2018-09-12T23:34:12.324Z,66.70
2018-09-12T23:36:41.836Z,66.60
2018-09-12T23:39:13.319Z,66.60
2018-09-12T23:41:43.103Z,66.60
2018-09-12T23:44:13.642Z,66.60
2018-09-12T23:46:43.319Z,66.60
2018-09-12T23:49:13.688Z,66.50
2018-09-12T23:51:43.812Z,66.60
2018-09-12T23:54:13.298Z,66.60
2018-09-12T23:56:42.853Z,66.70
2018-09-12T23:59:12.524Z,67.70
